This is the latest recevied weather packets stored in our database for station/object KC5EZZ-4. If no packets are shown the sender has not sent any weather packets the latest 10 day(s).
| Time | Temp. | Humidity | Pressure | Rain* | Wind** | Luminosity | Snow |
|---|---|---|---|---|---|---|---|
| 1777266463 | 21.11° C | - | - | 0 mm | 3.13 m/s, 191° | - | - |
| 1777223463 | 34.44° C | - | - | 0 mm | 1.79 m/s, 180° | - | - |
| 1777223161 | 33.33° C | - | - | 0 mm | 2.68 m/s, 201° | - | - |
| 1777221661 | 31.11° C | - | - | 0 mm | 3.13 m/s, 211° | - | - |
| 1777221359 | 33.33° C | - | - | 0 mm | 3.13 m/s, 224° | - | - |
| 1777221060 | 31.67° C | - | - | 0 mm | 3.13 m/s, 217° | - | - |
| 1777218960 | 31.67° C | - | - | 0 mm | 2.68 m/s, 224° | - | - |
| 1777217758 | 32.78° C | - | - | 0 mm | 3.13 m/s, 219° | - | - |
| 1777217456 | 31.67° C | - | - | 0 mm | 3.13 m/s, 264° | - | - |
| 1777217156 | 31.67° C | - | - | 0 mm | 3.58 m/s, 212° | - | - |
| 1777216849 | 31.11° C | - | - | 0 mm | 3.58 m/s, 222° | - | - |
| 1777216550 | 30° C | - | - | 0 mm | 4.02 m/s, 211° | - | - |
| 1777216249 | 30° C | - | - | 0 mm | 4.02 m/s, 186° | - | - |
| 1777215944 | 28.89° C | - | - | 0 mm | 2.24 m/s, 215° | - | - |
| 1777214135 | 26.11° C | - | - | 0.51 mm | 3.58 m/s, 245° | - | - |
| 1777194610 | 19.44° C | - | - | 0 mm | 0.45 m/s, 278° | - | - |
| 1777129129 | 33.33° C | - | - | 0 mm | 3.13 m/s, 211° | - | - |
| 1777128531 | 32.22° C | - | - | 0 mm | 3.58 m/s, 212° | - | - |
| 1777127029 | 33.33° C | - | - | 1.02 mm | 0.89 m/s, 250° | - | - |
| 1777126730 | 32.78° C | - | - | 1.02 mm | 2.24 m/s, 203° | - | - |
| 1777126427 | 32.78° C | - | - | 1.02 mm | 2.68 m/s, 207° | - | - |
| 1777126128 | 32.22° C | - | - | 1.02 mm | 0.89 m/s, 255° | - | - |
| 1777125829 | 32.78° C | - | - | 1.02 mm | 0 m/s | - | - |
| 1777125227 | 29.44° C | - | - | 1.02 mm | 0 m/s | - | - |
| 1777124926 | 30.56° C | - | - | 1.02 mm | 0 m/s | - | - |
* Rain latest hour (hover to see other rain measurements)
** Current wind speed in m/s (hover to see current wind gust speed)